Airfield :







YOU CAN JOIN US ON...

 
LOGIN :

Register | Disclaimer

   EN    FR    IT 

 









Legend :    VFR   Marginal VFR   IFR   Intensive IFR   Very Intensive IFR
Visi :
Ceiling :
>= 8 km
>= 3000ft
5 to 8 km
1000 to 3000 ft
1500m to 5 km
500 to 1000 ft
800 to 1500m
200 to 500 ft
< 800m
< 200 ft
Symbols :   Thunderstorms  Fog  Heavy snow  Heavy precipitations  Wind > 20 kt







- Airport Elevation : 496 ft
- IATA code : YQX


CYQX - Gander

CURRENT METAR :
  • 201900Z 36009KT 20SM FEW013 OVC018 13/08 A2967 RMK SC1SC7 SLP053 DENSITY ALT 700FT

EXPIRED METARs :
  • 201800Z 01009KT 340V040 20SM FEW013 OVC019 14/09 A2966 RMK SC1SC7 SLP047 DENSITY ALT 800FT
  • 201700Z 03005KT 330V060 20SM FEW013 BKN019 14/09 A2965 RMK SC2SC5 SLP045 DENSITY ALT 800FT

TAF TAF CYQX
Valid from the 20 at 18:00 until the 21 at 18:00 UTC


201738Z 2018/2118 03005KT P6SM BKN020
TEMPO 2018/2102 SCT020
BECMG 2100/2102 13008KT
FM210200 13008KT P6SM SCT003 BKN040
PROB30 2102/2110 1SM BR OVC003
FM211000 14010KT P6SM FEW006 BKN015
FM211500 14010KT 2SM -RA BR OVC002 RMK NXT FCST BY 210000Z
CZQX FIR / North America



MET'MAP, your aeronautical weather chart ! - Copyright ORBIFLY December 2007 - Disclaimer

ORBIFLY MET'MAP TEAM :

Programming & Development : Alexandra Zaïnal
Concept & Development : Baudouin d'Aumeries
Co-Development & Prog : Marc-Olivier Méhu
Technical & hardware support : Manuel Goepfert

Contact : metmap@orbifly.com




SOURCES & CREDITS :

   NOAA